sensor_id;sensor_type;location;lat;lon;timestamp;P1;durP1;ratioP1;P2;durP2;ratioP2
3193;SDS011;1608;50.860;13.466;2023-02-22T00:01:14;14.43;;;8.27;;
3193;SDS011;1608;50.860;13.466;2023-02-22T00:03:59;19.53;;;9.37;;
3193;SDS011;1608;50.860;13.466;2023-02-22T00:06:26;14.63;;;9.07;;
3193;SDS011;1608;50.860;13.466;2023-02-22T00:08:55;16.17;;;9.40;;
3193;SDS011;1608;50.860;13.466;2023-02-22T00:11:23;15.60;;;8.87;;
3193;SDS011;1608;50.860;13.466;2023-02-22T00:13:50;17.70;;;9.40;;
3193;SDS011;1608;50.860;13.466;2023-02-22T00:16:21;15.43;;;9.73;;
3193;SDS011;1608;50.860;13.466;2023-02-22T00:18:49;14.57;;;8.07;;
3193;SDS011;1608;50.860;13.466;2023-02-22T00:21:17;12.93;;;8.20;;
3193;SDS011;1608;50.860;13.466;2023-02-22T00:23:45;13.17;;;9.20;;
3193;SDS011;1608;50.860;13.466;2023-02-22T00:26:13;16.00;;;9.00;;
3193;SDS011;1608;50.860;13.466;2023-02-22T00:28:44;14.47;;;9.33;;
3193;SDS011;1608;50.860;13.466;2023-02-22T00:31:12;12.83;;;8.50;;
3193;SDS011;1608;50.860;13.466;2023-02-22T00:33:39;14.40;;;8.63;;
3193;SDS011;1608;50.860;13.466;2023-02-22T00:36:06;14.13;;;8.63;;
3193;SDS011;1608;50.860;13.466;2023-02-22T00:38:35;13.83;;;8.00;;
3193;SDS011;1608;50.860;13.466;2023-02-22T00:41:02;14.57;;;8.70;;
3193;SDS011;1608;50.860;13.466;2023-02-22T00:43:29;16.27;;;9.40;;
3193;SDS011;1608;50.860;13.466;2023-02-22T00:45:57;14.33;;;8.60;;
3193;SDS011;1608;50.860;13.466;2023-02-22T00:48:24;15.30;;;9.33;;
3193;SDS011;1608;50.860;13.466;2023-02-22T00:50:51;13.37;;;10.10;;
3193;SDS011;1608;50.860;13.466;2023-02-22T00:53:19;14.93;;;9.73;;
3193;SDS011;1608;50.860;13.466;2023-02-22T00:55:47;14.83;;;8.90;;
3193;SDS011;1608;50.860;13.466;2023-02-22T00:58:14;12.90;;;8.10;;
3193;SDS011;1608;50.860;13.466;2023-02-22T01:00:42;16.17;;;9.60;;
3193;SDS011;1608;50.860;13.466;2023-02-22T01:03:12;15.40;;;9.20;;
3193;SDS011;1608;50.860;13.466;2023-02-22T01:05:40;14.90;;;8.90;;
3193;SDS011;1608;50.860;13.466;2023-02-22T01:08:08;14.63;;;9.23;;
3193;SDS011;1608;50.860;13.466;2023-02-22T01:10:37;16.33;;;8.10;;
3193;SDS011;1608;50.860;13.466;2023-02-22T01:13:05;18.63;;;10.23;;
3193;SDS011;1608;50.860;13.466;2023-02-22T01:15:36;12.00;;;7.20;;
3193;SDS011;1608;50.860;13.466;2023-02-22T01:18:04;14.80;;;9.27;;
3193;SDS011;1608;50.860;13.466;2023-02-22T01:20:33;13.20;;;7.83;;
3193;SDS011;1608;50.860;13.466;2023-02-22T01:23:01;11.63;;;7.87;;
3193;SDS011;1608;50.860;13.466;2023-02-22T01:25:31;10.07;;;7.73;;
3193;SDS011;1608;50.860;13.466;2023-02-22T01:27:59;16.20;;;9.33;;
3193;SDS011;1608;50.860;13.466;2023-02-22T01:30:27;15.97;;;10.20;;
3193;SDS011;1608;50.860;13.466;2023-02-22T01:32:56;12.50;;;7.60;;
3193;SDS011;1608;50.860;13.466;2023-02-22T01:35:24;10.80;;;7.53;;
3193;SDS011;1608;50.860;13.466;2023-02-22T01:37:54;12.80;;;8.63;;
3193;SDS011;1608;50.860;13.466;2023-02-22T01:40:22;16.10;;;8.87;;
3193;SDS011;1608;50.860;13.466;2023-02-22T01:42:51;15.90;;;8.33;;
3193;SDS011;1608;50.860;13.466;2023-02-22T01:48:15;20.03;;;9.23;;
3193;SDS011;1608;50.860;13.466;2023-02-22T01:50:47;16.20;;;8.70;;
3193;SDS011;1608;50.860;13.466;2023-02-22T01:53:21;17.83;;;9.70;;
3193;SDS011;1608;50.860;13.466;2023-02-22T01:55:50;14.13;;;8.97;;
3193;SDS011;1608;50.860;13.466;2023-02-22T01:58:18;16.60;;;9.23;;
3193;SDS011;1608;50.860;13.466;2023-02-22T02:00:48;17.00;;;8.93;;
3193;SDS011;1608;50.860;13.466;2023-02-22T02:03:16;14.10;;;7.77;;
3193;SDS011;1608;50.860;13.466;2023-02-22T02:05:45;18.27;;;9.70;;
3193;SDS011;1608;50.860;13.466;2023-02-22T02:08:16;14.43;;;9.60;;
3193;SDS011;1608;50.860;13.466;2023-02-22T02:10:52;17.23;;;10.70;;
3193;SDS011;1608;50.860;13.466;2023-02-22T02:13:20;18.13;;;9.47;;
3193;SDS011;1608;50.860;13.466;2023-02-22T02:15:47;17.70;;;8.57;;
3193;SDS011;1608;50.860;13.466;2023-02-22T02:18:16;19.40;;;9.53;;
3193;SDS011;1608;50.860;13.466;2023-02-22T02:20:46;14.80;;;9.20;;
3193;SDS011;1608;50.860;13.466;2023-02-22T02:23:35;17.43;;;8.33;;
3193;SDS011;1608;50.860;13.466;2023-02-22T02:32:23;18.03;;;10.87;;
3193;SDS011;1608;50.860;13.466;2023-02-22T02:34:56;12.57;;;7.57;;
3193;SDS011;1608;50.860;13.466;2023-02-22T02:37:31;14.33;;;8.73;;
3193;SDS011;1608;50.860;13.466;2023-02-22T02:40:05;16.87;;;8.80;;
3193;SDS011;1608;50.860;13.466;2023-02-22T02:42:43;15.10;;;8.80;;
3193;SDS011;1608;50.860;13.466;2023-02-22T02:45:18;13.60;;;8.53;;
3193;SDS011;1608;50.860;13.466;2023-02-22T02:47:50;19.97;;;10.57;;
3193;SDS011;1608;50.860;13.466;2023-02-22T02:50:23;14.03;;;9.13;;
3193;SDS011;1608;50.860;13.466;2023-02-22T02:52:54;14.73;;;9.47;;
3193;SDS011;1608;50.860;13.466;2023-02-22T02:55:24;14.17;;;8.87;;
3193;SDS011;1608;50.860;13.466;2023-02-22T02:57:54;17.10;;;8.63;;
3193;SDS011;1608;50.860;13.466;2023-02-22T03:00:26;13.07;;;9.00;;
3193;SDS011;1608;50.860;13.466;2023-02-22T03:03:07;16.27;;;8.47;;
3193;SDS011;1608;50.860;13.466;2023-02-22T03:05:54;20.63;;;8.20;;
3193;SDS011;1608;50.860;13.466;2023-02-22T03:08:33;15.57;;;8.97;;
3193;SDS011;1608;50.860;13.466;2023-02-22T03:11:09;16.70;;;9.67;;
3193;SDS011;1608;50.860;13.466;2023-02-22T03:13:41;14.27;;;8.83;;
3193;SDS011;1608;50.860;13.466;2023-02-22T03:16:16;16.20;;;8.80;;
3193;SDS011;1608;50.860;13.466;2023-02-22T03:18:53;14.10;;;8.10;;
3193;SDS011;1608;50.860;13.466;2023-02-22T03:21:27;16.00;;;7.90;;
3193;SDS011;1608;50.860;13.466;2023-02-22T03:24:00;20.37;;;9.33;;
3193;SDS011;1608;50.860;13.466;2023-02-22T03:26:33;14.50;;;9.50;;
3193;SDS011;1608;50.860;13.466;2023-02-22T03:29:04;19.40;;;9.90;;
3193;SDS011;1608;50.860;13.466;2023-02-22T03:31:33;17.93;;;9.70;;
3193;SDS011;1608;50.860;13.466;2023-02-22T03:34:07;11.57;;;8.17;;
3193;SDS011;1608;50.860;13.466;2023-02-22T03:36:38;16.70;;;9.30;;
3193;SDS011;1608;50.860;13.466;2023-02-22T03:39:10;14.60;;;9.40;;
3193;SDS011;1608;50.860;13.466;2023-02-22T03:41:42;10.97;;;7.50;;
3193;SDS011;1608;50.860;13.466;2023-02-22T03:44:17;16.07;;;8.37;;
3193;SDS011;1608;50.860;13.466;2023-02-22T03:46:47;18.30;;;9.40;;
3193;SDS011;1608;50.860;13.466;2023-02-22T03:49:17;13.73;;;8.47;;
3193;SDS011;1608;50.860;13.466;2023-02-22T03:51:50;16.97;;;8.53;;
3193;SDS011;1608;50.860;13.466;2023-02-22T03:54:17;16.60;;;9.90;;
3193;SDS011;1608;50.860;13.466;2023-02-22T03:56:47;17.50;;;10.50;;
3193;SDS011;1608;50.860;13.466;2023-02-22T03:59:17;16.47;;;9.87;;
3193;SDS011;1608;50.860;13.466;2023-02-22T04:01:49;17.30;;;10.97;;
3193;SDS011;1608;50.860;13.466;2023-02-22T04:04:17;22.97;;;11.30;;
3193;SDS011;1608;50.860;13.466;2023-02-22T04:06:45;22.67;;;13.60;;
3193;SDS011;1608;50.860;13.466;2023-02-22T04:09:13;23.90;;;13.67;;
3193;SDS011;1608;50.860;13.466;2023-02-22T04:11:41;26.10;;;14.00;;
3193;SDS011;1608;50.860;13.466;2023-02-22T04:14:07;23.33;;;12.97;;
3193;SDS011;1608;50.860;13.466;2023-02-22T04:16:34;30.10;;;15.43;;
3193;SDS011;1608;50.860;13.466;2023-02-22T04:19:01;24.53;;;13.77;;
3193;SDS011;1608;50.860;13.466;2023-02-22T04:21:29;29.63;;;14.33;;
3193;SDS011;1608;50.860;13.466;2023-02-22T04:23:56;22.37;;;11.90;;
3193;SDS011;1608;50.860;13.466;2023-02-22T04:26:23;18.33;;;10.97;;
3193;SDS011;1608;50.860;13.466;2023-02-22T04:28:50;22.60;;;13.07;;
3193;SDS011;1608;50.860;13.466;2023-02-22T04:31:17;18.83;;;10.43;;
3193;SDS011;1608;50.860;13.466;2023-02-22T04:33:44;26.10;;;11.83;;
3193;SDS011;1608;50.860;13.466;2023-02-22T04:36:11;21.23;;;10.57;;
3193;SDS011;1608;50.860;13.466;2023-02-22T04:38:41;22.10;;;11.10;;
3193;SDS011;1608;50.860;13.466;2023-02-22T04:41:08;27.70;;;10.43;;
3193;SDS011;1608;50.860;13.466;2023-02-22T04:43:35;15.10;;;9.90;;
3193;SDS011;1608;50.860;13.466;2023-02-22T04:46:02;19.17;;;10.50;;
3193;SDS011;1608;50.860;13.466;2023-02-22T04:48:29;22.27;;;10.93;;
3193;SDS011;1608;50.860;13.466;2023-02-22T04:50:56;21.53;;;10.70;;
3193;SDS011;1608;50.860;13.466;2023-02-22T04:53:23;23.40;;;11.00;;
3193;SDS011;1608;50.860;13.466;2023-02-22T04:55:51;17.50;;;9.30;;
3193;SDS011;1608;50.860;13.466;2023-02-22T04:58:18;20.90;;;10.17;;
3193;SDS011;1608;50.860;13.466;2023-02-22T05:00:45;22.30;;;12.83;;
3193;SDS011;1608;50.860;13.466;2023-02-22T05:03:12;16.70;;;9.93;;
3193;SDS011;1608;50.860;13.466;2023-02-22T05:05:39;18.77;;;9.33;;
3193;SDS011;1608;50.860;13.466;2023-02-22T05:08:06;17.23;;;9.80;;
3193;SDS011;1608;50.860;13.466;2023-02-22T05:10:33;18.33;;;9.77;;
3193;SDS011;1608;50.860;13.466;2023-02-22T05:13:01;14.40;;;10.23;;
3193;SDS011;1608;50.860;13.466;2023-02-22T05:15:28;18.57;;;9.80;;
3193;SDS011;1608;50.860;13.466;2023-02-22T05:17:55;17.63;;;9.20;;
3193;SDS011;1608;50.860;13.466;2023-02-22T05:20:24;20.97;;;10.50;;
3193;SDS011;1608;50.860;13.466;2023-02-22T05:22:53;16.57;;;9.90;;
3193;SDS011;1608;50.860;13.466;2023-02-22T05:25:20;21.13;;;12.23;;
3193;SDS011;1608;50.860;13.466;2023-02-22T05:27:50;17.03;;;10.37;;
3193;SDS011;1608;50.860;13.466;2023-02-22T05:30:20;15.97;;;9.57;;
3193;SDS011;1608;50.860;13.466;2023-02-22T05:32:49;17.93;;;11.60;;
3193;SDS011;1608;50.860;13.466;2023-02-22T05:35:16;17.10;;;10.10;;
3193;SDS011;1608;50.860;13.466;2023-02-22T05:37:43;18.60;;;10.80;;
3193;SDS011;1608;50.860;13.466;2023-02-22T05:40:11;18.47;;;9.60;;
3193;SDS011;1608;50.860;13.466;2023-02-22T05:42:39;19.10;;;11.10;;
3193;SDS011;1608;50.860;13.466;2023-02-22T05:45:06;20.07;;;10.50;;
3193;SDS011;1608;50.860;13.466;2023-02-22T05:47:35;16.00;;;10.37;;
3193;SDS011;1608;50.860;13.466;2023-02-22T05:50:02;21.00;;;10.83;;
3193;SDS011;1608;50.860;13.466;2023-02-22T05:52:29;16.17;;;9.67;;
3193;SDS011;1608;50.860;13.466;2023-02-22T05:54:56;19.93;;;11.80;;
3193;SDS011;1608;50.860;13.466;2023-02-22T05:57:23;20.77;;;11.43;;
3193;SDS011;1608;50.860;13.466;2023-02-22T05:59:50;12.87;;;9.83;;
3193;SDS011;1608;50.860;13.466;2023-02-22T06:02:17;21.27;;;11.97;;
3193;SDS011;1608;50.860;13.466;2023-02-22T06:04:45;26.43;;;14.60;;
3193;SDS011;1608;50.860;13.466;2023-02-22T06:07:12;22.27;;;16.30;;
3193;SDS011;1608;50.860;13.466;2023-02-22T06:09:40;25.87;;;16.00;;
3193;SDS011;1608;50.860;13.466;2023-02-22T06:12:07;22.90;;;12.10;;
3193;SDS011;1608;50.860;13.466;2023-02-22T06:14:34;30.93;;;15.20;;
3193;SDS011;1608;50.860;13.466;2023-02-22T06:17:01;31.87;;;15.07;;
3193;SDS011;1608;50.860;13.466;2023-02-22T06:19:29;17.93;;;11.03;;
3193;SDS011;1608;50.860;13.466;2023-02-22T06:21:57;20.40;;;13.00;;
3193;SDS011;1608;50.860;13.466;2023-02-22T06:24:26;21.77;;;12.90;;
3193;SDS011;1608;50.860;13.466;2023-02-22T06:26:54;16.30;;;11.40;;
3193;SDS011;1608;50.860;13.466;2023-02-22T06:29:21;22.73;;;12.50;;
3193;SDS011;1608;50.860;13.466;2023-02-22T06:31:48;20.90;;;12.90;;
3193;SDS011;1608;50.860;13.466;2023-02-22T06:34:15;22.40;;;12.23;;
3193;SDS011;1608;50.860;13.466;2023-02-22T06:36:42;20.77;;;12.60;;
3193;SDS011;1608;50.860;13.466;2023-02-22T06:39:13;19.60;;;13.50;;
3193;SDS011;1608;50.860;13.466;2023-02-22T06:41:40;18.90;;;11.43;;
3193;SDS011;1608;50.860;13.466;2023-02-22T06:44:07;21.40;;;13.13;;
3193;SDS011;1608;50.860;13.466;2023-02-22T06:46:35;25.57;;;14.17;;
3193;SDS011;1608;50.860;13.466;2023-02-22T06:49:02;19.77;;;13.07;;
3193;SDS011;1608;50.860;13.466;2023-02-22T06:51:29;27.30;;;13.80;;
3193;SDS011;1608;50.860;13.466;2023-02-22T06:54:00;22.90;;;12.83;;
3193;SDS011;1608;50.860;13.466;2023-02-22T06:56:29;23.70;;;14.50;;
3193;SDS011;1608;50.860;13.466;2023-02-22T06:58:56;24.10;;;14.67;;
3193;SDS011;1608;50.860;13.466;2023-02-22T07:01:23;22.63;;;12.50;;
3193;SDS011;1608;50.860;13.466;2023-02-22T07:03:50;26.17;;;14.27;;
3193;SDS011;1608;50.860;13.466;2023-02-22T07:06:17;25.57;;;13.43;;
3193;SDS011;1608;50.860;13.466;2023-02-22T07:08:43;17.07;;;11.90;;
3193;SDS011;1608;50.860;13.466;2023-02-22T07:11:10;21.20;;;12.10;;
3193;SDS011;1608;50.860;13.466;2023-02-22T07:13:38;23.67;;;14.03;;
3193;SDS011;1608;50.860;13.466;2023-02-22T07:16:05;25.87;;;14.73;;
3193;SDS011;1608;50.860;13.466;2023-02-22T07:18:32;22.37;;;14.40;;
3193;SDS011;1608;50.860;13.466;2023-02-22T07:20:59;27.17;;;14.33;;
3193;SDS011;1608;50.860;13.466;2023-02-22T07:23:26;22.50;;;14.87;;
3193;SDS011;1608;50.860;13.466;2023-02-22T07:25:53;23.83;;;14.03;;
3193;SDS011;1608;50.860;13.466;2023-02-22T07:28:20;22.70;;;13.70;;
3193;SDS011;1608;50.860;13.466;2023-02-22T07:30:48;25.00;;;14.77;;
3193;SDS011;1608;50.860;13.466;2023-02-22T07:33:15;25.17;;;14.47;;
3193;SDS011;1608;50.860;13.466;2023-02-22T07:35:42;25.70;;;13.33;;
3193;SDS011;1608;50.860;13.466;2023-02-22T07:38:11;20.87;;;13.43;;
3193;SDS011;1608;50.860;13.466;2023-02-22T07:40:39;21.77;;;12.87;;
3193;SDS011;1608;50.860;13.466;2023-02-22T07:43:13;29.07;;;14.10;;
3193;SDS011;1608;50.860;13.466;2023-02-22T07:45:41;19.20;;;11.97;;
3193;SDS011;1608;50.860;13.466;2023-02-22T07:48:09;17.67;;;12.70;;
3193;SDS011;1608;50.860;13.466;2023-02-22T07:50:37;22.90;;;14.50;;
3193;SDS011;1608;50.860;13.466;2023-02-22T07:53:06;25.07;;;14.47;;
3193;SDS011;1608;50.860;13.466;2023-02-22T07:55:35;26.70;;;14.33;;
3193;SDS011;1608;50.860;13.466;2023-02-22T07:58:02;19.00;;;11.83;;
3193;SDS011;1608;50.860;13.466;2023-02-22T08:00:34;24.40;;;13.60;;
3193;SDS011;1608;50.860;13.466;2023-02-22T08:03:02;50.50;;;25.50;;
3193;SDS011;1608;50.860;13.466;2023-02-22T08:05:32;37.83;;;20.30;;
3193;SDS011;1608;50.860;13.466;2023-02-22T08:08:00;30.07;;;17.10;;
3193;SDS011;1608;50.860;13.466;2023-02-22T08:10:27;27.47;;;15.80;;
3193;SDS011;1608;50.860;13.466;2023-02-22T08:12:55;24.40;;;13.00;;
3193;SDS011;1608;50.860;13.466;2023-02-22T08:15:23;21.20;;;13.43;;
3193;SDS011;1608;50.860;13.466;2023-02-22T08:17:52;25.63;;;13.47;;
3193;SDS011;1608;50.860;13.466;2023-02-22T08:20:20;23.93;;;15.50;;
3193;SDS011;1608;50.860;13.466;2023-02-22T08:22:48;22.73;;;13.87;;
3193;SDS011;1608;50.860;13.466;2023-02-22T08:25:16;216.93;;;81.17;;
3193;SDS011;1608;50.860;13.466;2023-02-22T08:27:44;186.17;;;70.77;;
3193;SDS011;1608;50.860;13.466;2023-02-22T08:30:13;83.40;;;36.13;;
3193;SDS011;1608;50.860;13.466;2023-02-22T08:32:40;42.37;;;22.10;;
3193;SDS011;1608;50.860;13.466;2023-02-22T08:35:07;28.73;;;17.67;;
3193;SDS011;1608;50.860;13.466;2023-02-22T08:37:34;27.43;;;13.67;;
3193;SDS011;1608;50.860;13.466;2023-02-22T08:40:02;24.50;;;15.03;;
3193;SDS011;1608;50.860;13.466;2023-02-22T08:42:29;29.77;;;14.10;;
3193;SDS011;1608;50.860;13.466;2023-02-22T08:44:56;23.30;;;13.53;;
3193;SDS011;1608;50.860;13.466;2023-02-22T08:47:23;21.00;;;12.87;;
3193;SDS011;1608;50.860;13.466;2023-02-22T08:49:50;19.07;;;11.97;;
3193;SDS011;1608;50.860;13.466;2023-02-22T08:52:17;22.10;;;11.70;;
3193;SDS011;1608;50.860;13.466;2023-02-22T08:54:45;19.37;;;11.10;;
3193;SDS011;1608;50.860;13.466;2023-02-22T08:57:13;22.30;;;12.57;;
3193;SDS011;1608;50.860;13.466;2023-02-22T08:59:40;17.23;;;11.17;;
3193;SDS011;1608;50.860;13.466;2023-02-22T09:02:09;19.47;;;11.73;;
3193;SDS011;1608;50.860;13.466;2023-02-22T09:04:40;13.70;;;9.93;;
3193;SDS011;1608;50.860;13.466;2023-02-22T09:07:07;21.57;;;11.10;;
3193;SDS011;1608;50.860;13.466;2023-02-22T09:09:34;14.03;;;9.60;;
3193;SDS011;1608;50.860;13.466;2023-02-22T09:12:01;14.80;;;8.43;;
3193;SDS011;1608;50.860;13.466;2023-02-22T09:14:30;15.33;;;10.10;;
3193;SDS011;1608;50.860;13.466;2023-02-22T09:16:56;13.13;;;8.30;;
3193;SDS011;1608;50.860;13.466;2023-02-22T09:19:23;10.27;;;6.70;;
3193;SDS011;1608;50.860;13.466;2023-02-22T09:21:53;15.60;;;8.13;;
3193;SDS011;1608;50.860;13.466;2023-02-22T09:24:20;13.50;;;8.40;;
3193;SDS011;1608;50.860;13.466;2023-02-22T09:26:47;13.20;;;9.17;;
3193;SDS011;1608;50.860;13.466;2023-02-22T09:29:18;15.30;;;9.37;;
3193;SDS011;1608;50.860;13.466;2023-02-22T09:31:48;13.67;;;8.40;;
3193;SDS011;1608;50.860;13.466;2023-02-22T09:34:16;14.83;;;9.57;;
3193;SDS011;1608;50.860;13.466;2023-02-22T09:36:44;14.93;;;9.07;;
3193;SDS011;1608;50.860;13.466;2023-02-22T09:39:12;15.40;;;9.60;;
3193;SDS011;1608;50.860;13.466;2023-02-22T09:41:42;13.00;;;9.70;;
3193;SDS011;1608;50.860;13.466;2023-02-22T09:44:16;16.70;;;10.30;;
3193;SDS011;1608;50.860;13.466;2023-02-22T09:46:51;12.77;;;8.90;;
3193;SDS011;1608;50.860;13.466;2023-02-22T09:49:20;14.27;;;9.67;;
3193;SDS011;1608;50.860;13.466;2023-02-22T09:51:51;12.63;;;9.20;;
3193;SDS011;1608;50.860;13.466;2023-02-22T09:54:25;14.00;;;8.47;;
3193;SDS011;1608;50.860;13.466;2023-02-22T09:56:59;10.83;;;8.43;;
3193;SDS011;1608;50.860;13.466;2023-02-22T09:59:32;12.10;;;8.80;;
3193;SDS011;1608;50.860;13.466;2023-02-22T10:02:11;16.47;;;9.00;;
3193;SDS011;1608;50.860;13.466;2023-02-22T10:04:46;10.27;;;7.80;;
3193;SDS011;1608;50.860;13.466;2023-02-22T10:07:19;8.40;;;6.00;;
3193;SDS011;1608;50.860;13.466;2023-02-22T10:09:51;10.53;;;6.80;;
3193;SDS011;1608;50.860;13.466;2023-02-22T10:12:22;8.53;;;6.30;;
3193;SDS011;1608;50.860;13.466;2023-02-22T10:15:06;10.17;;;7.57;;
3193;SDS011;1608;50.860;13.466;2023-02-22T10:17:57;7.53;;;5.80;;
3193;SDS011;1608;50.860;13.466;2023-02-22T10:20:37;6.97;;;5.87;;
3193;SDS011;1608;50.860;13.466;2023-02-22T10:23:12;6.93;;;5.57;;
3193;SDS011;1608;50.860;13.466;2023-02-22T10:25:45;7.70;;;5.50;;
3193;SDS011;1608;50.860;13.466;2023-02-22T10:28:17;11.60;;;6.27;;
3193;SDS011;1608;50.860;13.466;2023-02-22T10:30:48;10.40;;;5.83;;
3193;SDS011;1608;50.860;13.466;2023-02-22T10:33:22;10.20;;;6.30;;
3193;SDS011;1608;50.860;13.466;2023-02-22T10:35:52;8.63;;;7.03;;
3193;SDS011;1608;50.860;13.466;2023-02-22T10:38:21;8.20;;;5.77;;
3193;SDS011;1608;50.860;13.466;2023-02-22T10:40:52;11.50;;;7.57;;
3193;SDS011;1608;50.860;13.466;2023-02-22T10:43:21;9.13;;;6.17;;
3193;SDS011;1608;50.860;13.466;2023-02-22T10:45:49;9.63;;;7.90;;
3193;SDS011;1608;50.860;13.466;2023-02-22T10:48:20;8.50;;;5.70;;
3193;SDS011;1608;50.860;13.466;2023-02-22T10:50:49;9.60;;;7.00;;
3193;SDS011;1608;50.860;13.466;2023-02-22T10:53:19;8.00;;;6.10;;
3193;SDS011;1608;50.860;13.466;2023-02-22T10:58:44;7.43;;;4.70;;
3193;SDS011;1608;50.860;13.466;2023-02-22T11:01:22;8.73;;;6.70;;
3193;SDS011;1608;50.860;13.466;2023-02-22T11:03:56;6.47;;;5.10;;
3193;SDS011;1608;50.860;13.466;2023-02-22T11:06:25;5.90;;;5.30;;
3193;SDS011;1608;50.860;13.466;2023-02-22T11:08:58;7.70;;;5.50;;
3193;SDS011;1608;50.860;13.466;2023-02-22T11:11:32;5.27;;;4.77;;
3193;SDS011;1608;50.860;13.466;2023-02-22T11:13:59;6.00;;;5.00;;
3193;SDS011;1608;50.860;13.466;2023-02-22T11:16:27;6.53;;;4.50;;
3193;SDS011;1608;50.860;13.466;2023-02-22T11:19:02;6.20;;;4.00;;
3193;SDS011;1608;50.860;13.466;2023-02-22T11:21:36;5.93;;;5.33;;
3193;SDS011;1608;50.860;13.466;2023-02-22T11:24:05;6.13;;;3.50;;
3193;SDS011;1608;50.860;13.466;2023-02-22T11:26:37;4.77;;;4.23;;
3193;SDS011;1608;50.860;13.466;2023-02-22T11:29:09;5.30;;;3.97;;
3193;SDS011;1608;50.860;13.466;2023-02-22T11:31:44;9.70;;;7.10;;
3193;SDS011;1608;50.860;13.466;2023-02-22T11:34:28;11.50;;;7.00;;
3193;SDS011;1608;50.860;13.466;2023-02-22T11:37:14;12.50;;;8.70;;
3193;SDS011;1608;50.860;13.466;2023-02-22T11:40:09;8.40;;;6.30;;
3193;SDS011;1608;50.860;13.466;2023-02-22T11:42:42;7.40;;;4.73;;
3193;SDS011;1608;50.860;13.466;2023-02-22T11:45:10;7.50;;;5.60;;
3193;SDS011;1608;50.860;13.466;2023-02-22T11:47:48;8.90;;;5.57;;
3193;SDS011;1608;50.860;13.466;2023-02-22T11:50:24;6.80;;;4.97;;
3193;SDS011;1608;50.860;13.466;2023-02-22T11:52:55;11.40;;;5.80;;
3193;SDS011;1608;50.860;13.466;2023-02-22T11:55:36;5.43;;;4.83;;
3193;SDS011;1608;50.860;13.466;2023-02-22T11:58:12;8.17;;;6.33;;
3193;SDS011;1608;50.860;13.466;2023-02-22T12:00:55;11.10;;;6.03;;
3193;SDS011;1608;50.860;13.466;2023-02-22T12:06:00;7.90;;;5.20;;
3193;SDS011;1608;50.860;13.466;2023-02-22T12:08:39;7.33;;;5.30;;
3193;SDS011;1608;50.860;13.466;2023-02-22T12:11:19;8.17;;;6.13;;
3193;SDS011;1608;50.860;13.466;2023-02-22T12:13:56;8.37;;;5.50;;
3193;SDS011;1608;50.860;13.466;2023-02-22T12:16:38;6.87;;;5.90;;
3193;SDS011;1608;50.860;13.466;2023-02-22T12:19:18;11.83;;;7.77;;
3193;SDS011;1608;50.860;13.466;2023-02-22T12:21:53;9.03;;;4.80;;
3193;SDS011;1608;50.860;13.466;2023-02-22T12:24:24;5.73;;;4.50;;
3193;SDS011;1608;50.860;13.466;2023-02-22T12:26:54;6.00;;;4.43;;
3193;SDS011;1608;50.860;13.466;2023-02-22T12:29:27;6.53;;;5.00;;
3193;SDS011;1608;50.860;13.466;2023-02-22T12:32:02;8.57;;;5.10;;
3193;SDS011;1608;50.860;13.466;2023-02-22T12:34:33;8.17;;;6.13;;
3193;SDS011;1608;50.860;13.466;2023-02-22T12:37:08;7.57;;;5.33;;
3193;SDS011;1608;50.860;13.466;2023-02-22T12:39:45;11.60;;;6.60;;
3193;SDS011;1608;50.860;13.466;2023-02-22T12:42:18;12.90;;;11.00;;
3193;SDS011;1608;50.860;13.466;2023-02-22T12:44:51;9.70;;;7.07;;
3193;SDS011;1608;50.860;13.466;2023-02-22T12:47:24;10.73;;;6.20;;
3193;SDS011;1608;50.860;13.466;2023-02-22T12:49:58;9.67;;;7.00;;
3193;SDS011;1608;50.860;13.466;2023-02-22T12:52:37;12.00;;;7.70;;
3193;SDS011;1608;50.860;13.466;2023-02-22T12:55:10;9.20;;;6.60;;
3193;SDS011;1608;50.860;13.466;2023-02-22T12:57:43;12.03;;;8.40;;
3193;SDS011;1608;50.860;13.466;2023-02-22T13:00:16;11.67;;;7.20;;
3193;SDS011;1608;50.860;13.466;2023-02-22T13:02:52;15.47;;;6.63;;
3193;SDS011;1608;50.860;13.466;2023-02-22T13:05:23;13.10;;;7.70;;
3193;SDS011;1608;50.860;13.466;2023-02-22T13:07:56;23.23;;;17.33;;
3193;SDS011;1608;50.860;13.466;2023-02-22T13:10:38;10.00;;;6.97;;
3193;SDS011;1608;50.860;13.466;2023-02-22T13:13:21;9.33;;;7.40;;
3193;SDS011;1608;50.860;13.466;2023-02-22T13:15:57;8.27;;;7.10;;
3193;SDS011;1608;50.860;13.466;2023-02-22T13:18:30;12.03;;;5.87;;
3193;SDS011;1608;50.860;13.466;2023-02-22T13:21:03;8.70;;;6.10;;
3193;SDS011;1608;50.860;13.466;2023-02-22T13:23:42;8.67;;;5.70;;
3193;SDS011;1608;50.860;13.466;2023-02-22T13:26:15;9.40;;;5.87;;
3193;SDS011;1608;50.860;13.466;2023-02-22T13:28:47;9.33;;;5.70;;
3193;SDS011;1608;50.860;13.466;2023-02-22T13:31:21;11.17;;;6.47;;
3193;SDS011;1608;50.860;13.466;2023-02-22T13:34:18;8.17;;;5.90;;
3193;SDS011;1608;50.860;13.466;2023-02-22T13:37:01;8.07;;;5.50;;
3193;SDS011;1608;50.860;13.466;2023-02-22T13:39:53;7.27;;;4.97;;
3193;SDS011;1608;50.860;13.466;2023-02-22T13:42:40;8.73;;;6.73;;
3193;SDS011;1608;50.860;13.466;2023-02-22T13:48:12;13.03;;;6.97;;
3193;SDS011;1608;50.860;13.466;2023-02-22T13:51:08;9.07;;;5.20;;
3193;SDS011;1608;50.860;13.466;2023-02-22T13:53:47;12.13;;;6.40;;
3193;SDS011;1608;50.860;13.466;2023-02-22T13:56:20;5.60;;;4.13;;
3193;SDS011;1608;50.860;13.466;2023-02-22T13:58:49;8.60;;;6.60;;
3193;SDS011;1608;50.860;13.466;2023-02-22T14:01:36;10.70;;;6.10;;
3193;SDS011;1608;50.860;13.466;2023-02-22T14:07:00;7.77;;;6.40;;
3193;SDS011;1608;50.860;13.466;2023-02-22T14:09:42;8.50;;;6.67;;
3193;SDS011;1608;50.860;13.466;2023-02-22T14:15:14;11.13;;;6.97;;
3193;SDS011;1608;50.860;13.466;2023-02-22T14:17:43;9.73;;;6.13;;
3193;SDS011;1608;50.860;13.466;2023-02-22T14:20:24;12.87;;;7.00;;
3193;SDS011;1608;50.860;13.466;2023-02-22T14:22:57;9.40;;;6.47;;
3193;SDS011;1608;50.860;13.466;2023-02-22T14:25:39;8.43;;;5.97;;
3193;SDS011;1608;50.860;13.466;2023-02-22T14:28:31;9.87;;;6.53;;
3193;SDS011;1608;50.860;13.466;2023-02-22T14:31:05;7.33;;;5.83;;
3193;SDS011;1608;50.860;13.466;2023-02-22T14:33:57;9.70;;;6.00;;
3193;SDS011;1608;50.860;13.466;2023-02-22T14:36:32;10.50;;;6.13;;
3193;SDS011;1608;50.860;13.466;2023-02-22T14:39:15;11.70;;;7.10;;
3193;SDS011;1608;50.860;13.466;2023-02-22T14:41:50;11.50;;;6.80;;
3193;SDS011;1608;50.860;13.466;2023-02-22T14:44:27;19.97;;;9.43;;
3193;SDS011;1608;50.860;13.466;2023-02-22T14:46:58;12.23;;;8.37;;
3193;SDS011;1608;50.860;13.466;2023-02-22T14:49:30;12.27;;;7.50;;
3193;SDS011;1608;50.860;13.466;2023-02-22T14:52:04;16.40;;;8.20;;
3193;SDS011;1608;50.860;13.466;2023-02-22T14:54:34;11.03;;;7.20;;
3193;SDS011;1608;50.860;13.466;2023-02-22T14:57:11;11.73;;;8.00;;
3193;SDS011;1608;50.860;13.466;2023-02-22T14:59:51;10.03;;;6.80;;
3193;SDS011;1608;50.860;13.466;2023-02-22T15:02:36;17.07;;;9.60;;
3193;SDS011;1608;50.860;13.466;2023-02-22T15:05:05;19.00;;;9.93;;
3193;SDS011;1608;50.860;13.466;2023-02-22T15:07:33;18.70;;;11.67;;
3193;SDS011;1608;50.860;13.466;2023-02-22T15:10:07;15.07;;;10.90;;
3193;SDS011;1608;50.860;13.466;2023-02-22T15:12:49;20.67;;;12.03;;
3193;SDS011;1608;50.860;13.466;2023-02-22T15:15:20;21.13;;;12.33;;
3193;SDS011;1608;50.860;13.466;2023-02-22T15:17:51;17.30;;;11.53;;
3193;SDS011;1608;50.860;13.466;2023-02-22T15:20:20;16.50;;;12.20;;
3193;SDS011;1608;50.860;13.466;2023-02-22T15:22:49;15.87;;;8.67;;
3193;SDS011;1608;50.860;13.466;2023-02-22T15:25:17;24.50;;;10.60;;
3193;SDS011;1608;50.860;13.466;2023-02-22T15:27:50;18.57;;;11.10;;
3193;SDS011;1608;50.860;13.466;2023-02-22T15:30:20;17.27;;;9.93;;
3193;SDS011;1608;50.860;13.466;2023-02-22T15:32:50;15.97;;;9.33;;